Bloomington, IN

11:55 PM EST on March 03, 2015 (GMT -0500)
Monroe County | Change Station
CLOSE
Current Station
Airport
Location: Bloomington,
Elevation: 846 ft
Nearby Weather Stations

Elev 846 ft 39.15 °N, 86.62 °W | Updated 1 hour ago

Light Rain
Light Rain Mist
40 °F
Feels Like 34 °F
N
9
Wind Variable Wind from WNW

Today
High -- | Low -- °F
--% Chance of Precip.
Yesterday
High -- | Low -- °F
Precip. -- in
7:16 AM 6:40 PM
Waxing Gibbous, 98% visible
Pressure 29.91 in
Visibility 4.0 miles
Clouds Mostly Cloudy 700 ft
Overcast 1200 ft
Windchill 34 °F
Dew Point 38 °F
Humidity 93%
Rainfall 0.44 in
Snow Depth Not available.
UV 0 out of 12
Pollen .70 out of 12
Air Quality Not available.
Flu Activity Not available.
METAR KBMG 040353Z 29008KT 4SM -RA BR BKN007 OVC012 04/03 A2990 RMK AO2 SLP129 P0003 T00440033

More Conditions Fewer Conditions

Pressure 29.91 in
Visibility 4.0 miles
Clouds Mostly Cloudy 700 ft
Overcast 1200 ft
Windchill 34 °F
Dew Point 38 °F
Humidity 93%
Rainfall 0.44 in
Snow Depth Not available.
UV 0 out of 12
Pollen .70 out of 12
Air Quality Not available.
Flu Activity Not available.
METAR KBMG 040353Z 29008KT 4SM -RA BR BKN007 OVC012 04/03 A2990 RMK AO2 SLP129 P0003 T00440033

More Conditions Fewer Conditions

10-Day Weather Forecast

Almanac

Astronomy

Mar. 03, 2015 Rise Set
Actual Time
Civil Twilight
Nautical Twilight
Astronomical Twilight
Moon
Length of Visible Light
Length of Day
Tomorrow will be .
, % of the Moon is Illuminated

Today's Extremes

State Highs State Lows

Community

WunderPhotos

Upload Photos

1,802,385 photos uploaded!

WunderBlogs® & News

Nearby

Air Quality

  Air Quality AQ Index Pollutant
Not available.

Snow Depth

Station Depth Elevation

Earthquake Activity

City Distance Mag. Time & Date
Minimum magnitude displayed is 2.5.

Coastal Water Temperatures

Place Temperature

Nearby Weather Stations